createdAt,value
2022-11-14T00:02:08.286Z,100602.69
2022-11-14T00:05:28.247Z,100592.97
2022-11-14T00:08:48.530Z,100599.00
2022-11-14T00:12:09.749Z,100589.38
2022-11-14T00:15:29.881Z,100589.34
2022-11-14T00:18:49.702Z,100585.88
2022-11-14T00:22:09.529Z,100596.28
2022-11-14T00:25:29.519Z,100586.66
2022-11-14T00:28:49.509Z,100584.03
2022-11-14T00:32:09.373Z,100591.88
2022-11-14T00:35:29.211Z,100582.31
2022-11-14T00:38:53.372Z,100584.91
2022-11-14T00:42:13.448Z,100576.97
2022-11-14T00:45:33.185Z,100572.59
2022-11-14T00:48:53.035Z,100567.38
2022-11-14T00:52:13.002Z,100564.75
2022-11-14T00:55:32.764Z,100564.72
2022-11-14T00:58:52.673Z,100564.66
2022-11-14T01:02:12.495Z,100548.09
2022-11-14T01:05:32.417Z,100549.00
2022-11-14T01:08:52.652Z,100551.72
2022-11-14T01:12:12.608Z,100546.38
2022-11-14T01:15:33.532Z,100552.59
2022-11-14T01:18:53.488Z,100542.94
2022-11-14T01:22:13.504Z,100542.09
2022-11-14T01:25:35.055Z,100535.16
2022-11-14T01:28:55.051Z,100535.13
2022-11-14T01:32:15.136Z,100529.97
2022-11-14T01:35:37.188Z,100535.25
2022-11-14T01:38:57.181Z,100520.38
2022-11-14T01:42:17.798Z,100516.00
2022-11-14T01:45:51.071Z,100512.69
2022-11-14T01:49:37.060Z,100505.75
2022-11-14T01:52:57.148Z,100496.91
2022-11-14T01:56:22.733Z,100500.38
2022-11-14T01:59:47.369Z,100497.75
2022-11-14T02:03:07.569Z,100498.56
2022-11-14T02:06:30.727Z,100493.41
2022-11-14T02:09:51.740Z,100478.56
2022-11-14T02:13:11.896Z,100473.34
2022-11-14T02:16:32.063Z,100474.28
2022-11-14T02:20:02.196Z,100475.94
2022-11-14T02:23:27.687Z,100468.94
2022-11-14T02:26:47.598Z,100462.00
2022-11-14T02:30:12.442Z,100464.50
2022-11-14T02:33:32.679Z,100459.25
2022-11-14T02:36:53.335Z,100458.41
2022-11-14T02:40:13.381Z,100457.69
2022-11-14T02:43:33.436Z,100458.59
2022-11-14T02:46:53.499Z,100456.84
2022-11-14T02:50:13.465Z,100459.56
2022-11-14T02:53:33.652Z,100456.94
2022-11-14T02:56:53.393Z,100455.28
2022-11-14T03:00:15.289Z,100457.13
2022-11-14T03:03:35.386Z,100454.81
2022-11-14T03:06:55.341Z,100456.66
2022-11-14T03:10:15.633Z,100453.00
2022-11-14T03:13:36.503Z,100453.91
2022-11-14T03:16:56.531Z,100453.09
2022-11-14T03:20:17.363Z,100449.59
2022-11-14T03:23:37.517Z,100445.31
2022-11-14T03:26:57.454Z,100453.09
2022-11-14T03:30:17.829Z,100446.22
2022-11-14T03:33:38.360Z,100440.06
2022-11-14T03:36:58.346Z,100440.16
2022-11-14T03:40:18.540Z,100440.25
2022-11-14T03:43:38.440Z,100443.66
2022-11-14T03:46:58.320Z,100433.13
2022-11-14T03:50:18.185Z,100444.44
2022-11-14T03:53:38.008Z,100437.47
2022-11-14T03:56:57.880Z,100431.47
2022-11-14T04:00:18.265Z,100430.56
2022-11-14T04:03:38.082Z,100432.16
2022-11-14T04:06:58.041Z,100427.88
2022-11-14T04:10:18.348Z,100429.59
2022-11-14T04:13:38.288Z,100422.56
2022-11-14T04:16:58.202Z,100419.09
2022-11-14T04:20:18.153Z,100415.59
2022-11-14T04:23:38.101Z,100417.31
2022-11-14T04:26:58.122Z,100403.28
2022-11-14T04:30:18.268Z,100409.41
2022-11-14T04:33:38.120Z,100395.44
2022-11-14T04:36:57.983Z,100399.81
2022-11-14T04:40:18.028Z,100401.44
2022-11-14T04:43:38.072Z,100406.69
2022-11-14T04:46:57.945Z,100409.38
2022-11-14T04:50:17.915Z,100410.25
2022-11-14T04:53:38.083Z,100414.63
2022-11-14T04:56:58.030Z,100412.78
2022-11-14T05:00:18.169Z,100405.91
2022-11-14T05:03:38.141Z,100406.78
2022-11-14T05:06:58.261Z,100410.50
2022-11-14T05:10:18.236Z,100405.25
2022-11-14T05:13:38.014Z,100401.88
2022-11-14T05:16:58.254Z,100414.97
2022-11-14T05:20:18.309Z,100415.81
2022-11-14T05:23:38.202Z,100407.06
2022-11-14T05:26:59.041Z,100394.91
2022-11-14T05:30:18.984Z,100395.75
2022-11-14T05:33:39.454Z,100387.88
2022-11-14T05:36:59.307Z,100380.94
2022-11-14T05:40:19.316Z,100382.63
2022-11-14T05:43:40.401Z,100386.13
2022-11-14T05:47:00.289Z,100383.56
2022-11-14T05:50:20.107Z,100370.50
2022-11-14T05:53:40.423Z,100374.06
2022-11-14T05:57:00.342Z,100367.88
2022-11-14T06:00:20.193Z,100353.03
2022-11-14T06:03:44.832Z,100353.00
2022-11-14T06:07:05.062Z,100353.75
2022-11-14T06:10:25.635Z,100365.09
2022-11-14T06:13:46.203Z,100362.38
2022-11-14T06:17:06.017Z,100357.13
2022-11-14T06:20:25.951Z,100352.78
2022-11-14T06:23:46.172Z,100342.22
2022-11-14T06:27:06.385Z,100340.47
2022-11-14T06:30:26.641Z,100342.28
2022-11-14T06:33:46.996Z,100349.28
2022-11-14T06:37:07.055Z,100352.75
2022-11-14T06:40:26.824Z,100350.84
2022-11-14T06:43:52.845Z,100348.50
2022-11-14T06:47:12.751Z,100354.63
2022-11-14T06:50:32.613Z,100353.75
2022-11-14T06:53:52.556Z,100338.91
2022-11-14T06:57:12.729Z,100337.31
2022-11-14T07:00:32.684Z,100335.50
2022-11-14T07:03:52.896Z,100338.97
2022-11-14T07:07:13.184Z,100346.81
2022-11-14T07:10:33.700Z,100358.97
2022-11-14T07:14:01.146Z,100359.81
2022-11-14T07:17:21.897Z,100358.97
2022-11-14T07:20:41.589Z,100354.59
2022-11-14T07:24:01.616Z,100351.09
2022-11-14T07:27:21.615Z,100351.00
2022-11-14T07:30:41.828Z,100356.22
2022-11-14T07:34:02.248Z,100366.66
2022-11-14T07:37:22.479Z,100363.13
2022-11-14T07:40:42.204Z,100361.13
2022-11-14T07:44:03.059Z,100341.13
2022-11-14T07:47:22.832Z,100352.31
2022-11-14T07:50:43.364Z,100347.03
2022-11-14T07:54:03.529Z,100338.97
2022-11-14T07:57:23.411Z,100351.84
2022-11-14T08:00:43.212Z,100357.88
2022-11-14T08:04:03.139Z,100352.50
2022-11-14T08:07:23.057Z,100357.44
2022-11-14T08:10:42.830Z,100344.44
2022-11-14T08:14:02.777Z,100348.69
2022-11-14T08:17:23.799Z,100345.28
2022-11-14T08:20:44.635Z,100336.47
2022-11-14T08:24:04.712Z,100354.78
2022-11-14T08:27:25.609Z,100354.53
2022-11-14T08:30:45.809Z,100348.47
2022-11-14T08:34:05.517Z,100350.00
2022-11-14T08:37:25.305Z,100356.13
2022-11-14T08:40:45.191Z,100343.63
2022-11-14T08:44:06.037Z,100339.25
2022-11-14T08:47:25.914Z,100338.06
2022-11-14T08:50:45.760Z,100334.38
2022-11-14T08:54:05.793Z,100332.25
2022-11-14T08:57:26.168Z,100325.03
2022-11-14T09:00:46.121Z,100328.59
2022-11-14T09:04:06.211Z,100328.50
2022-11-14T09:07:26.794Z,100321.22
2022-11-14T09:10:46.759Z,100316.78
2022-11-14T09:14:07.152Z,100319.34
2022-11-14T09:17:26.994Z,100336.00
2022-11-14T09:20:46.819Z,100331.34
2022-11-14T09:24:06.881Z,100331.53
2022-11-14T09:27:27.464Z,100333.16
2022-11-14T09:30:47.608Z,100345.31
2022-11-14T09:34:07.419Z,100346.13
2022-11-14T09:37:27.317Z,100340.88
2022-11-14T09:41:02.807Z,100339.66
2022-11-14T09:44:42.281Z,100339.50
2022-11-14T09:48:15.967Z,100332.19
2022-11-14T09:51:44.751Z,100331.09
2022-11-14T09:55:15.317Z,100328.56
2022-11-14T09:58:35.256Z,100332.91
2022-11-14T10:02:14.317Z,100331.00
2022-11-14T10:06:09.203Z,100335.84
2022-11-14T10:09:52.828Z,100333.09
2022-11-14T10:13:32.090Z,100330.97
2022-11-14T10:17:11.232Z,100328.19
2022-11-14T10:20:42.069Z,100323.63
2022-11-14T10:24:24.551Z,100323.53
2022-11-14T10:28:09.536Z,100314.25
2022-11-14T10:31:57.880Z,100307.16
2022-11-14T10:35:33.845Z,100301.44
2022-11-14T10:39:06.023Z,100300.00
2022-11-14T10:42:34.849Z,100298.56
2022-11-14T10:46:10.016Z,100289.09
2022-11-14T10:49:32.466Z,100276.38
2022-11-14T10:52:57.662Z,100276.28
2022-11-14T10:56:17.954Z,100282.09
2022-11-14T10:59:37.653Z,100270.53
2022-11-14T11:02:58.027Z,100266.13
2022-11-14T11:06:26.549Z,100257.72
2022-11-14T11:10:18.272Z,100262.31
2022-11-14T11:13:52.879Z,100258.59
2022-11-14T11:17:13.038Z,100256.56
2022-11-14T11:20:32.870Z,100253.84
2022-11-14T11:23:57.212Z,100250.00
2022-11-14T11:27:28.912Z,100260.50
2022-11-14T11:30:59.316Z,100251.59
2022-11-14T11:34:27.956Z,100251.38
2022-11-14T11:37:57.094Z,100244.34
2022-11-14T11:42:07.712Z,100242.47
2022-11-14T11:45:18.642Z,100239.69
2022-11-14T11:48:39.687Z,100232.69
2022-11-14T11:52:06.167Z,100233.50
2022-11-14T11:55:47.983Z,100235.91
2022-11-14T11:59:33.848Z,100230.63
2022-11-14T12:02:54.551Z,100228.00
2022-11-14T12:06:25.243Z,100225.38
2022-11-14T12:13:44.900Z,100224.72
2022-11-14T12:17:28.454Z,100227.19
2022-11-14T12:20:54.520Z,100225.88
2022-11-14T12:24:26.416Z,100220.66
2022-11-14T12:28:05.339Z,100223.13
2022-11-14T12:31:33.615Z,100214.88
2022-11-14T12:34:53.973Z,100214.03
2022-11-14T12:38:19.333Z,100208.63
2022-11-14T12:41:40.511Z,100217.44
2022-11-14T12:45:00.823Z,100211.94
2022-11-14T12:48:26.885Z,100218.94
2022-11-14T12:51:46.713Z,100226.56
2022-11-14T12:55:29.839Z,100212.00
2022-11-14T12:58:55.808Z,100219.97
2022-11-14T13:02:53.075Z,100221.06
2022-11-14T13:06:45.548Z,100212.75
2022-11-14T13:10:27.705Z,100213.56
2022-11-14T13:14:20.281Z,100207.47
2022-11-14T13:17:59.134Z,100214.47
2022-11-14T13:21:47.577Z,100212.19
2022-11-14T13:25:10.485Z,100216.75
2022-11-14T13:28:52.807Z,100216.00
2022-11-14T13:32:33.288Z,100215.53
2022-11-14T13:36:00.759Z,100210.94
2022-11-14T13:39:42.433Z,100215.56
2022-11-14T13:43:24.557Z,100224.31
2022-11-14T13:47:11.791Z,100203.22
2022-11-14T13:50:36.654Z,100214.41
2022-11-14T13:53:56.783Z,100205.81
2022-11-14T13:57:42.231Z,100206.00
2022-11-14T14:01:30.293Z,100202.53
2022-11-14T14:05:03.589Z,100208.47
2022-11-14T14:08:40.888Z,100214.41
2022-11-14T14:12:21.214Z,100209.13
2022-11-14T14:15:49.023Z,100200.19
2022-11-14T14:19:25.494Z,100211.13
2022-11-14T14:22:55.140Z,100203.44
2022-11-14T14:26:55.464Z,100198.75
2022-11-14T14:30:19.595Z,100200.84
2022-11-14T14:33:45.154Z,100206.66
2022-11-14T14:37:16.715Z,100220.16
2022-11-14T14:40:39.344Z,100197.66
2022-11-14T14:43:59.865Z,100210.66
2022-11-14T14:47:32.407Z,100215.69
2022-11-14T14:50:55.108Z,100216.22
2022-11-14T14:54:24.507Z,100211.28
2022-11-14T14:57:44.509Z,100206.09
2022-11-14T15:01:06.193Z,100207.06
2022-11-14T15:04:29.936Z,100196.53
2022-11-14T15:07:51.300Z,100206.00
2022-11-14T15:11:15.075Z,100215.66
2022-11-14T15:14:38.647Z,100204.06
2022-11-14T15:18:02.395Z,100206.25
2022-11-14T15:21:27.100Z,100206.41
2022-11-14T15:25:11.637Z,100210.78
2022-11-14T15:28:32.121Z,100211.81
2022-11-14T15:31:53.836Z,100204.16
2022-11-14T15:35:24.929Z,100198.91
2022-11-14T15:39:03.489Z,100206.66
2022-11-14T15:42:23.567Z,100211.00
2022-11-14T15:45:43.421Z,100208.72
2022-11-14T15:49:29.818Z,100218.13
2022-11-14T15:52:57.598Z,100205.59
2022-11-14T15:56:17.899Z,100197.72
2022-11-14T15:59:39.487Z,100201.31
2022-11-14T16:02:59.499Z,100199.88
2022-11-14T16:06:20.033Z,100192.28
2022-11-14T16:09:39.940Z,100191.38
2022-11-14T16:12:59.827Z,100193.84
2022-11-14T16:16:19.588Z,100199.59
2022-11-14T16:19:39.590Z,100197.09
2022-11-14T16:22:59.440Z,100206.88
2022-11-14T16:26:19.284Z,100204.47
2022-11-14T16:29:39.166Z,100210.47
2022-11-14T16:32:59.096Z,100209.63
2022-11-14T16:36:21.098Z,100215.69
2022-11-14T16:39:41.286Z,100219.47
2022-11-14T16:43:01.319Z,100224.63
2022-11-14T16:46:21.559Z,100235.06
2022-11-14T16:49:41.756Z,100235.19
2022-11-14T16:53:01.701Z,100227.53
2022-11-14T16:56:21.456Z,100236.47
2022-11-14T16:59:41.729Z,100243.22
2022-11-14T17:03:01.652Z,100252.16
2022-11-14T17:06:21.683Z,100251.25
2022-11-14T17:09:41.779Z,100260.03
2022-11-14T17:13:01.918Z,100262.28
2022-11-14T17:16:22.516Z,100262.84
2022-11-14T17:19:46.202Z,100264.81
2022-11-14T17:23:06.316Z,100259.81
2022-11-14T17:26:26.256Z,100260.91
2022-11-14T17:29:46.600Z,100262.41
2022-11-14T17:33:06.461Z,100258.78
2022-11-14T17:36:28.349Z,100272.59
2022-11-14T17:39:48.279Z,100270.88
2022-11-14T17:43:08.260Z,100276.03
2022-11-14T17:46:28.992Z,100275.59
2022-11-14T17:49:48.977Z,100280.19
2022-11-14T17:53:08.796Z,100277.13
2022-11-14T17:56:28.809Z,100274.31
2022-11-14T17:59:48.697Z,100277.53
2022-11-14T18:03:08.886Z,100280.00
2022-11-14T18:06:28.943Z,100274.00
2022-11-14T18:09:48.714Z,100265.88
2022-11-14T18:13:09.290Z,100252.75
2022-11-14T18:16:50.562Z,100270.06
2022-11-14T18:20:10.194Z,100259.38
2022-11-14T18:23:30.349Z,100260.25
2022-11-14T18:26:50.529Z,100248.72
2022-11-14T18:30:34.688Z,100252.22
2022-11-14T18:33:51.371Z,100247.00
2022-11-14T18:37:11.484Z,100243.44
2022-11-14T18:40:31.214Z,100248.81
2022-11-14T18:43:55.311Z,100251.50
2022-11-14T18:47:15.643Z,100245.41
2022-11-14T18:50:35.901Z,100251.59
2022-11-14T18:53:59.029Z,100254.56
2022-11-14T18:57:19.092Z,100253.13
2022-11-14T19:00:38.840Z,100243.47
2022-11-14T19:04:00.931Z,100245.44
2022-11-14T19:07:21.154Z,100249.09
2022-11-14T19:10:41.092Z,100245.66
2022-11-14T19:14:02.773Z,100244.75
2022-11-14T19:17:23.799Z,100250.13
2022-11-14T19:20:43.929Z,100243.25
2022-11-14T19:24:03.960Z,100243.25
2022-11-14T19:27:24.105Z,100248.53
2022-11-14T19:30:43.990Z,100260.91
2022-11-14T19:34:04.980Z,100253.22
2022-11-14T19:37:25.461Z,100253.56
2022-11-14T19:40:50.713Z,100259.88
2022-11-14T19:44:12.428Z,100261.94
2022-11-14T19:47:32.460Z,100261.81
2022-11-14T19:51:11.090Z,100271.59
2022-11-14T19:54:30.934Z,100270.66
2022-11-14T19:57:50.736Z,100262.66
2022-11-14T20:01:13.211Z,100273.44
2022-11-14T20:04:37.716Z,100266.47
2022-11-14T20:07:58.024Z,100271.25
2022-11-14T20:11:18.517Z,100276.53
2022-11-14T20:14:38.811Z,100265.91
2022-11-14T20:17:58.679Z,100270.22
2022-11-14T20:21:20.767Z,100271.78
2022-11-14T20:24:40.814Z,100269.88
2022-11-14T20:28:01.451Z,100266.22
2022-11-14T20:31:28.228Z,100261.81
2022-11-14T20:34:48.266Z,100272.47
2022-11-14T20:38:08.042Z,100270.69
2022-11-14T20:41:28.107Z,100271.47
2022-11-14T20:44:47.898Z,100268.75
2022-11-14T20:48:07.810Z,100275.19
2022-11-14T20:51:28.191Z,100272.91
2022-11-14T20:54:48.093Z,100271.19
2022-11-14T20:58:07.916Z,100269.38
2022-11-14T21:01:28.431Z,100264.03
2022-11-14T21:04:48.548Z,100268.38
2022-11-14T21:08:08.693Z,100272.81
2022-11-14T21:11:28.507Z,100255.91
2022-11-14T21:14:48.464Z,100264.56
2022-11-14T21:18:08.283Z,100280.22
2022-11-14T21:21:30.515Z,100272.25
2022-11-14T21:24:50.415Z,100270.44
2022-11-14T21:28:10.279Z,100266.13
2022-11-14T21:31:33.796Z,100264.16
2022-11-14T21:34:53.733Z,100264.16
2022-11-14T21:38:13.655Z,100271.00
2022-11-14T21:41:33.343Z,100277.19
2022-11-14T21:44:53.205Z,100279.78
2022-11-14T21:48:12.955Z,100282.34
2022-11-14T21:51:32.919Z,100275.34
2022-11-14T21:54:52.701Z,100277.94
2022-11-14T21:58:13.039Z,100276.25
2022-11-14T22:01:51.732Z,100270.09
2022-11-14T22:05:11.689Z,100274.38
2022-11-14T22:08:31.887Z,100270.81
2022-11-14T22:11:52.062Z,100272.44
2022-11-14T22:15:11.982Z,100279.53
2022-11-14T22:18:31.968Z,100273.53
2022-11-14T22:21:52.233Z,100275.22
2022-11-14T22:25:12.283Z,100277.78
2022-11-14T22:28:32.245Z,100269.94
2022-11-14T22:31:52.881Z,100264.69
2022-11-14T22:35:13.000Z,100275.34
2022-11-14T22:38:34.935Z,100275.44
2022-11-14T22:41:54.945Z,100279.25
2022-11-14T22:45:15.131Z,100276.88
2022-11-14T22:48:34.983Z,100287.66
2022-11-14T22:51:54.856Z,100282.59
2022-11-14T22:55:18.053Z,100278.34
2022-11-14T22:58:41.212Z,100281.94
2022-11-14T23:02:01.270Z,100282.72
2022-11-14T23:05:20.972Z,100275.19
2022-11-14T23:08:41.273Z,100279.63
2022-11-14T23:12:01.320Z,100277.88
2022-11-14T23:15:21.675Z,100283.09
2022-11-14T23:18:41.661Z,100279.63
2022-11-14T23:22:01.645Z,100278.03
2022-11-14T23:25:21.837Z,100272.75
2022-11-14T23:28:42.695Z,100275.28
2022-11-14T23:32:02.872Z,100277.00
2022-11-14T23:35:22.736Z,100275.19
2022-11-14T23:38:42.527Z,100270.91
2022-11-14T23:42:02.384Z,100260.38
2022-11-14T23:45:22.169Z,100267.50
2022-11-14T23:48:42.316Z,100262.16
2022-11-14T23:52:02.452Z,100262.91
2022-11-14T23:55:22.449Z,100264.72
2022-11-14T23:58:42.688Z,100266.69
